createdAt,value
2019-03-22T00:00:45.547Z,9.15
2019-03-22T00:03:18.032Z,9.07
2019-03-22T00:05:50.409Z,8.99
2019-03-22T00:08:22.875Z,8.95
2019-03-22T00:10:54.902Z,8.92
2019-03-22T00:13:27.418Z,8.86
2019-03-22T00:15:59.895Z,8.80
2019-03-22T00:18:32.477Z,8.75
2019-03-22T00:21:04.745Z,8.69
2019-03-22T00:23:37.214Z,8.65
2019-03-22T00:26:09.589Z,8.60
2019-03-22T00:28:41.960Z,8.54
2019-03-22T00:31:14.323Z,8.50
2019-03-22T00:33:46.703Z,8.47
2019-03-22T00:36:19.128Z,8.43
2019-03-22T00:38:52.677Z,8.41
2019-03-22T00:41:25.049Z,8.35
2019-03-22T00:43:57.419Z,8.31
2019-03-22T00:46:29.792Z,8.28
2019-03-22T00:49:02.885Z,8.27
2019-03-22T00:51:35.251Z,8.26
2019-03-22T00:54:07.445Z,8.24
2019-03-22T00:56:39.792Z,8.20
2019-03-22T00:59:13.402Z,8.17
2019-03-22T01:01:45.764Z,8.15
2019-03-22T01:04:18.187Z,8.15
2019-03-22T01:06:50.506Z,8.11
2019-03-22T01:09:22.881Z,8.06
2019-03-22T01:11:55.250Z,8.08
2019-03-22T01:14:27.624Z,8.04
2019-03-22T01:16:59.999Z,8.00
2019-03-22T01:19:32.369Z,7.98
2019-03-22T01:22:05.044Z,7.99
2019-03-22T01:24:37.419Z,7.98
2019-03-22T01:27:09.793Z,7.98
2019-03-22T01:29:41.788Z,7.92
2019-03-22T01:32:13.717Z,7.89
2019-03-22T01:34:46.089Z,7.84
2019-03-22T01:37:18.459Z,7.84
2019-03-22T01:39:51.443Z,7.80
2019-03-22T01:42:23.713Z,7.78
2019-03-22T01:44:55.714Z,7.76
2019-03-22T01:47:27.640Z,7.72
2019-03-22T01:50:00.012Z,7.67
2019-03-22T01:52:32.384Z,7.67
2019-03-22T01:55:04.757Z,7.69
2019-03-22T01:57:37.023Z,7.65
2019-03-22T02:00:17.333Z,7.61
2019-03-22T02:02:49.651Z,7.62
2019-03-22T02:05:22.027Z,7.61
2019-03-22T02:07:54.057Z,7.62
2019-03-22T02:10:26.463Z,7.60
2019-03-22T02:12:58.839Z,7.59
2019-03-22T02:15:31.207Z,7.55
2019-03-22T02:18:03.748Z,7.51
2019-03-22T02:20:36.512Z,7.47
2019-03-22T02:23:08.834Z,7.46
2019-03-22T02:25:41.208Z,7.43
2019-03-22T02:28:13.581Z,7.43
2019-03-22T02:30:45.950Z,7.44
2019-03-22T02:33:18.321Z,7.42
2019-03-22T02:35:50.693Z,7.39
2019-03-22T02:38:23.066Z,7.39
2019-03-22T02:40:55.628Z,7.35
2019-03-22T02:43:27.918Z,7.30
2019-03-22T02:46:00.409Z,7.27
2019-03-22T02:48:32.758Z,7.29
2019-03-22T02:51:05.131Z,7.28
2019-03-22T02:53:37.060Z,7.28
2019-03-22T02:56:09.518Z,7.29
2019-03-22T02:58:42.049Z,7.26
2019-03-22T03:01:15.353Z,7.27
2019-03-22T03:03:47.721Z,7.21
2019-03-22T03:06:20.213Z,7.18
2019-03-22T03:08:52.562Z,7.13
2019-03-22T03:11:24.936Z,7.10
2019-03-22T03:13:57.301Z,7.03
2019-03-22T03:16:29.571Z,7.01
2019-03-22T03:19:01.552Z,7.00
2019-03-22T03:21:33.910Z,6.98
2019-03-22T03:24:06.285Z,7.01
2019-03-22T03:26:38.648Z,7.05
2019-03-22T03:29:10.625Z,7.15
2019-03-22T03:31:43.001Z,7.26
2019-03-22T03:34:15.521Z,7.30
2019-03-22T03:36:47.852Z,7.37
2019-03-22T03:39:20.209Z,7.47
2019-03-22T03:41:52.139Z,7.56
2019-03-22T03:44:24.540Z,7.63
2019-03-22T03:46:56.912Z,7.69
2019-03-22T03:49:28.875Z,7.75
2019-03-22T03:52:01.252Z,7.81
2019-03-22T03:54:33.634Z,7.82
2019-03-22T03:57:07.022Z,7.87
2019-03-22T03:59:39.793Z,7.89
2019-03-22T04:02:12.170Z,7.94
2019-03-22T04:04:44.481Z,7.99
2019-03-22T04:07:16.807Z,8.04
2019-03-22T04:09:48.767Z,8.11
2019-03-22T04:12:20.728Z,8.13
2019-03-22T04:14:53.112Z,8.18
2019-03-22T04:17:25.483Z,8.18
2019-03-22T04:19:57.907Z,8.24
2019-03-22T04:22:30.090Z,8.32
2019-03-22T04:25:02.490Z,8.36
2019-03-22T04:27:34.922Z,8.41
2019-03-22T04:30:09.082Z,8.47
2019-03-22T04:32:41.511Z,8.50
2019-03-22T04:35:13.925Z,8.50
2019-03-22T04:37:45.866Z,8.53
2019-03-22T04:40:30.266Z,8.53
2019-03-22T04:43:02.621Z,8.55
2019-03-22T04:45:34.983Z,8.56
2019-03-22T04:48:14.725Z,8.60
2019-03-22T04:50:47.112Z,8.59
2019-03-22T04:53:22.090Z,8.63
2019-03-22T04:55:58.291Z,8.66
2019-03-22T04:58:30.562Z,8.70
2019-03-22T05:01:03.249Z,8.68
2019-03-22T05:03:35.619Z,8.70
2019-03-22T05:06:07.987Z,8.77
2019-03-22T05:08:40.887Z,8.81
2019-03-22T05:11:13.559Z,8.84
2019-03-22T05:13:46.457Z,8.82
2019-03-22T05:16:19.007Z,8.82
2019-03-22T05:18:51.698Z,8.81
2019-03-22T05:21:24.892Z,8.84
2019-03-22T05:23:57.471Z,8.86
2019-03-22T05:26:30.249Z,8.89
2019-03-22T05:29:02.621Z,8.92
2019-03-22T05:32:01.404Z,8.94
2019-03-22T05:34:33.366Z,8.93
2019-03-22T05:37:05.849Z,8.97
2019-03-22T05:39:38.213Z,8.97
2019-03-22T05:42:10.590Z,9.05
2019-03-22T05:44:42.964Z,9.02
2019-03-22T05:47:15.342Z,9.02
2019-03-22T05:49:47.764Z,9.02
2019-03-22T05:52:20.183Z,9.07
2019-03-22T05:54:52.546Z,9.07
2019-03-22T05:57:24.491Z,9.06
2019-03-22T05:59:56.885Z,9.10
2019-03-22T06:02:29.255Z,9.08
2019-03-22T06:05:01.626Z,9.10
2019-03-22T06:07:33.951Z,9.11
2019-03-22T06:10:07.495Z,9.14
2019-03-22T06:12:39.875Z,9.16
2019-03-22T06:15:12.344Z,9.19
2019-03-22T06:17:51.681Z,9.22
2019-03-22T06:20:18.753Z,9.28
2019-03-22T06:22:51.200Z,9.34
2019-03-22T06:25:23.585Z,9.41
2019-03-22T06:27:55.950Z,9.41
2019-03-22T06:30:28.731Z,9.46
2019-03-22T06:33:01.092Z,9.46
2019-03-22T06:35:33.062Z,9.52
2019-03-22T06:38:05.436Z,9.58
2019-03-22T06:40:37.410Z,9.64
2019-03-22T06:43:09.759Z,9.59
2019-03-22T06:45:42.236Z,9.66
2019-03-22T06:48:14.712Z,9.68
2019-03-22T06:50:47.079Z,9.70
2019-03-22T06:53:19.450Z,9.75
2019-03-22T06:55:51.828Z,9.75
2019-03-22T06:58:24.408Z,9.73
2019-03-22T07:00:56.877Z,9.77
2019-03-22T07:03:29.258Z,9.82
2019-03-22T07:06:01.339Z,9.85
2019-03-22T07:08:33.981Z,9.91
2019-03-22T07:11:06.376Z,9.92
2019-03-22T07:13:41.804Z,10.00
2019-03-22T07:16:14.853Z,10.05
2019-03-22T07:18:50.354Z,10.09
2019-03-22T07:21:22.724Z,10.02
2019-03-22T07:23:55.096Z,10.07
2019-03-22T07:26:29.970Z,10.14
2019-03-22T07:29:01.476Z,10.21
2019-03-22T07:31:35.755Z,10.30
2019-03-22T07:34:07.398Z,10.24
2019-03-22T07:36:39.926Z,10.39
2019-03-22T07:39:12.297Z,10.36
2019-03-22T07:41:44.669Z,10.41
2019-03-22T07:44:17.142Z,10.47
2019-03-22T07:46:49.515Z,10.57
2019-03-22T07:49:22.899Z,10.59
2019-03-22T07:51:55.376Z,10.49
2019-03-22T07:54:27.748Z,10.52
2019-03-22T07:57:00.126Z,10.59
2019-03-22T07:59:32.502Z,10.52
2019-03-22T08:02:04.864Z,10.58
2019-03-22T08:04:37.243Z,10.72
2019-03-22T08:07:09.608Z,10.81
2019-03-22T08:09:42.323Z,10.77
2019-03-22T08:12:14.667Z,10.77
2019-03-22T08:14:47.055Z,10.85
2019-03-22T08:17:19.418Z,10.82
2019-03-22T08:19:51.372Z,11.00
2019-03-22T08:22:23.555Z,11.06
2019-03-22T08:24:55.902Z,11.13
2019-03-22T08:27:28.297Z,11.01
2019-03-22T08:30:00.663Z,11.03
2019-03-22T08:32:33.029Z,11.01
2019-03-22T08:35:05.540Z,11.03
2019-03-22T08:37:37.468Z,11.12
2019-03-22T08:40:09.846Z,11.02
2019-03-22T08:42:42.710Z,10.99
2019-03-22T08:45:14.878Z,10.98
2019-03-22T08:47:47.263Z,11.06
2019-03-22T08:50:19.634Z,11.13
2019-03-22T08:52:52.053Z,11.19
2019-03-22T08:55:24.383Z,11.30
2019-03-22T08:57:56.844Z,11.40
2019-03-22T09:00:38.652Z,11.38
2019-03-22T09:03:02.772Z,11.47
2019-03-22T09:05:35.234Z,11.47
2019-03-22T09:08:07.598Z,11.50
2019-03-22T09:10:39.832Z,11.51
2019-03-22T09:13:12.112Z,11.44
2019-03-22T09:15:44.486Z,11.41
2019-03-22T09:18:16.955Z,11.46
2019-03-22T09:20:49.345Z,11.54
2019-03-22T09:23:21.310Z,11.60
2019-03-22T09:25:53.265Z,11.69
2019-03-22T09:28:25.630Z,11.58
2019-03-22T09:31:09.869Z,11.50
2019-03-22T09:33:32.019Z,11.49
2019-03-22T09:36:04.416Z,11.48
2019-03-22T09:38:36.976Z,11.51
2019-03-22T09:41:09.317Z,11.61
2019-03-22T09:43:41.810Z,11.66
2019-03-22T09:46:14.180Z,11.67
2019-03-22T09:48:46.568Z,11.76
2019-03-22T09:51:18.909Z,11.76
2019-03-22T09:53:51.311Z,11.71
2019-03-22T09:56:23.267Z,11.82
2019-03-22T09:58:55.618Z,11.86
2019-03-22T10:01:27.992Z,11.78
2019-03-22T10:03:59.995Z,11.68
2019-03-22T10:06:32.468Z,11.73
2019-03-22T10:09:06.337Z,11.78
2019-03-22T10:11:38.728Z,11.85
2019-03-22T10:14:11.082Z,11.72
2019-03-22T10:16:43.451Z,11.74
2019-03-22T10:19:15.500Z,11.86
2019-03-22T10:21:47.940Z,11.82
2019-03-22T10:24:20.373Z,11.78
2019-03-22T10:26:52.798Z,11.93
2019-03-22T10:29:25.222Z,11.84
2019-03-22T10:31:57.531Z,11.86
2019-03-22T10:34:29.737Z,11.97
2019-03-22T10:37:02.132Z,12.12
2019-03-22T10:39:34.504Z,12.17
2019-03-22T10:42:07.833Z,12.27
2019-03-22T10:44:40.173Z,12.29
2019-03-22T10:47:12.554Z,12.26
2019-03-22T10:49:44.733Z,12.26
2019-03-22T10:52:17.449Z,12.28
2019-03-22T10:54:49.753Z,12.42
2019-03-22T10:57:22.113Z,12.51
2019-03-22T10:59:54.393Z,12.60
2019-03-22T11:02:27.278Z,12.42
2019-03-22T11:05:01.778Z,12.37
2019-03-22T11:07:33.342Z,12.35
2019-03-22T11:10:14.728Z,12.37
2019-03-22T11:12:47.206Z,12.30
2019-03-22T11:15:19.588Z,12.26
2019-03-22T11:17:52.045Z,12.27
2019-03-22T11:20:23.995Z,12.15
2019-03-22T11:22:56.415Z,12.18
2019-03-22T11:25:29.014Z,12.21
2019-03-22T11:28:01.462Z,12.22
2019-03-22T11:30:34.687Z,12.21
2019-03-22T11:33:07.098Z,12.26
2019-03-22T11:35:39.470Z,12.20
2019-03-22T11:38:11.852Z,12.16
2019-03-22T11:40:44.221Z,12.14
2019-03-22T11:43:16.581Z,12.20
2019-03-22T11:45:48.625Z,12.26
2019-03-22T11:48:21.027Z,12.13
2019-03-22T11:50:53.398Z,11.96
2019-03-22T11:53:25.818Z,12.02
2019-03-22T11:55:58.148Z,12.13
2019-03-22T11:58:30.724Z,12.21
2019-03-22T12:01:02.928Z,12.29
2019-03-22T12:03:36.376Z,12.14
2019-03-22T12:06:08.535Z,12.15
2019-03-22T12:08:40.537Z,12.28
2019-03-22T12:11:12.637Z,12.41
2019-03-22T12:13:45.063Z,12.39
2019-03-22T12:16:17.421Z,12.26
2019-03-22T12:18:50.482Z,12.30
2019-03-22T12:21:22.982Z,12.35
2019-03-22T12:23:56.335Z,12.37
2019-03-22T12:26:29.270Z,12.47
2019-03-22T12:29:01.648Z,12.46
2019-03-22T12:31:34.003Z,12.40
2019-03-22T12:34:06.411Z,12.43
2019-03-22T12:36:38.807Z,12.28
2019-03-22T12:39:11.124Z,12.26
2019-03-22T12:41:43.501Z,12.16
2019-03-22T12:44:15.874Z,12.10
2019-03-22T12:46:49.305Z,12.01
2019-03-22T12:49:21.953Z,12.08
2019-03-22T12:51:54.385Z,12.17
2019-03-22T12:54:26.795Z,12.09
2019-03-22T12:56:59.585Z,12.05
2019-03-22T12:59:31.943Z,11.92
2019-03-22T13:02:04.310Z,11.94
2019-03-22T13:04:36.683Z,11.95
2019-03-22T13:07:09.057Z,11.89
2019-03-22T13:09:41.428Z,11.89
2019-03-22T13:12:13.411Z,11.95
2019-03-22T13:14:45.764Z,11.90
2019-03-22T13:17:18.151Z,11.94
2019-03-22T13:19:50.516Z,11.97
2019-03-22T13:22:22.952Z,11.92
2019-03-22T13:24:55.365Z,11.88
2019-03-22T13:27:27.880Z,11.86
2019-03-22T13:30:00.720Z,11.81
2019-03-22T13:32:32.819Z,11.77
2019-03-22T13:35:05.214Z,11.69
2019-03-22T13:37:37.626Z,11.64
2019-03-22T13:40:10.306Z,11.61
2019-03-22T13:42:43.299Z,11.62
2019-03-22T13:45:15.671Z,11.58
2019-03-22T13:47:48.141Z,11.53
2019-03-22T13:50:20.518Z,11.63
2019-03-22T13:52:53.090Z,11.65
2019-03-22T13:55:26.744Z,11.68
2019-03-22T13:57:59.178Z,11.60
2019-03-22T14:00:31.169Z,11.62
2019-03-22T14:03:03.610Z,11.59
2019-03-22T14:05:35.981Z,11.57
2019-03-22T14:08:07.948Z,11.56
2019-03-22T14:10:39.890Z,11.55
2019-03-22T14:13:12.264Z,11.55
2019-03-22T14:15:44.639Z,11.57
2019-03-22T14:18:17.428Z,11.53
2019-03-22T14:20:50.927Z,11.49
2019-03-22T14:23:23.400Z,11.44
2019-03-22T14:25:55.975Z,11.39
2019-03-22T14:28:29.297Z,11.38
2019-03-22T14:31:01.268Z,11.38
2019-03-22T14:33:33.789Z,11.34
2019-03-22T14:36:05.723Z,11.36
2019-03-22T14:38:38.138Z,11.30
2019-03-22T14:41:10.518Z,11.29
2019-03-22T14:43:42.882Z,11.30
2019-03-22T14:46:16.382Z,11.27
2019-03-22T14:48:48.748Z,11.27
2019-03-22T14:51:21.787Z,11.22
2019-03-22T14:53:54.326Z,11.24
2019-03-22T14:56:26.693Z,11.31
2019-03-22T14:58:59.062Z,11.20
2019-03-22T15:01:31.439Z,11.19
2019-03-22T15:04:03.812Z,11.21
2019-03-22T15:06:36.188Z,11.19
2019-03-22T15:09:09.366Z,11.14
2019-03-22T15:11:41.746Z,11.12
2019-03-22T15:14:22.612Z,11.18
2019-03-22T15:17:02.667Z,11.18
2019-03-22T15:19:48.258Z,11.16
2019-03-22T15:22:26.411Z,11.19
2019-03-22T15:25:15.626Z,11.15
2019-03-22T15:27:56.072Z,11.21
2019-03-22T15:30:31.222Z,11.21
2019-03-22T15:33:11.071Z,11.17
2019-03-22T15:35:50.484Z,11.18
2019-03-22T15:38:31.167Z,11.18
2019-03-22T15:41:03.457Z,11.16
2019-03-22T15:43:35.820Z,11.13
2019-03-22T15:46:08.212Z,11.15
2019-03-22T15:48:40.699Z,11.10
2019-03-22T15:51:13.059Z,11.07
2019-03-22T15:53:45.025Z,11.10
2019-03-22T15:56:17.011Z,11.11
2019-03-22T15:58:49.425Z,11.11
2019-03-22T16:01:21.624Z,11.10
2019-03-22T16:03:53.963Z,11.08
2019-03-22T16:06:26.345Z,11.07
2019-03-22T16:08:58.280Z,11.09
2019-03-22T16:11:30.703Z,11.12
2019-03-22T16:14:03.042Z,11.14
2019-03-22T16:16:35.030Z,11.06
2019-03-22T16:19:07.477Z,11.06
2019-03-22T16:21:39.456Z,11.04
2019-03-22T16:24:11.822Z,11.02
2019-03-22T16:26:44.193Z,11.01
2019-03-22T16:29:16.560Z,11.00
2019-03-22T16:31:48.936Z,11.00
2019-03-22T16:34:21.307Z,10.95
2019-03-22T16:36:53.295Z,10.91
2019-03-22T16:39:26.046Z,10.93
2019-03-22T16:41:58.519Z,10.91
2019-03-22T16:44:30.894Z,10.88
2019-03-22T16:47:03.374Z,10.87
2019-03-22T16:49:35.764Z,10.88
2019-03-22T16:52:08.209Z,10.87
2019-03-22T16:54:40.588Z,10.81
2019-03-22T16:57:12.953Z,10.76
2019-03-22T16:59:45.326Z,10.74
2019-03-22T17:02:17.703Z,10.65
2019-03-22T17:04:50.082Z,10.58
2019-03-22T17:07:22.442Z,10.48
2019-03-22T17:09:55.242Z,10.38
2019-03-22T17:12:27.195Z,10.34
2019-03-22T17:14:59.194Z,10.25
2019-03-22T17:17:31.536Z,10.19
2019-03-22T17:20:04.098Z,10.12
2019-03-22T17:22:36.476Z,10.02
2019-03-22T17:25:09.158Z,9.90
2019-03-22T17:27:42.447Z,9.86
2019-03-22T17:30:15.437Z,9.79
2019-03-22T17:32:47.811Z,9.71
2019-03-22T17:35:20.172Z,9.62
2019-03-22T17:37:53.579Z,9.54
2019-03-22T17:40:25.942Z,9.50
2019-03-22T17:42:58.317Z,9.47
2019-03-22T17:45:30.685Z,9.43
2019-03-22T17:48:03.055Z,9.35
2019-03-22T17:50:35.441Z,9.28
2019-03-22T17:53:07.812Z,9.23
2019-03-22T17:55:40.174Z,9.22
2019-03-22T17:58:12.549Z,9.24
2019-03-22T18:00:45.761Z,9.29
2019-03-22T18:03:18.121Z,9.34
2019-03-22T18:05:50.119Z,9.36
2019-03-22T18:08:22.451Z,9.36
2019-03-22T18:10:54.435Z,9.38
2019-03-22T18:13:26.775Z,9.41
2019-03-22T18:15:59.156Z,9.37
2019-03-22T18:18:31.533Z,9.37
2019-03-22T18:21:04.006Z,9.38
2019-03-22T18:23:36.489Z,9.33
2019-03-22T18:26:08.953Z,9.30
2019-03-22T18:28:42.321Z,9.24
2019-03-22T18:31:14.744Z,9.23
2019-03-22T18:33:48.209Z,9.25
2019-03-22T18:36:20.595Z,9.28
2019-03-22T18:38:52.966Z,9.29
2019-03-22T18:41:25.900Z,9.29
2019-03-22T18:43:59.817Z,9.29
2019-03-22T18:46:33.121Z,9.31
2019-03-22T18:49:07.474Z,9.31
2019-03-22T18:51:44.233Z,9.35
2019-03-22T18:54:18.247Z,9.33
2019-03-22T18:56:52.493Z,9.28
2019-03-22T18:59:27.340Z,9.24
2019-03-22T19:02:01.334Z,9.28
2019-03-22T19:04:43.624Z,9.34
2019-03-22T19:07:11.229Z,9.35
2019-03-22T19:09:54.148Z,9.37
2019-03-22T19:12:30.383Z,9.38
2019-03-22T19:15:04.307Z,9.41
2019-03-22T19:17:39.170Z,9.43
2019-03-22T19:20:15.052Z,9.38
2019-03-22T19:22:48.651Z,9.41
2019-03-22T19:25:24.033Z,9.41
2019-03-22T19:27:57.246Z,9.43
2019-03-22T19:30:32.196Z,9.45
2019-03-22T19:33:06.578Z,9.46
2019-03-22T19:35:39.204Z,9.51
2019-03-22T19:38:20.223Z,9.48
2019-03-22T19:41:01.975Z,9.51
2019-03-22T19:43:37.630Z,9.52
2019-03-22T19:46:13.218Z,9.53
2019-03-22T19:48:45.542Z,9.51
2019-03-22T19:51:17.930Z,9.51
2019-03-22T19:53:50.632Z,9.49
2019-03-22T19:56:26.044Z,9.47
2019-03-22T19:59:00.731Z,9.52
2019-03-22T20:01:35.970Z,9.50
2019-03-22T20:04:11.183Z,9.50
2019-03-22T20:06:44.251Z,9.52
2019-03-22T20:09:17.682Z,9.54
2019-03-22T20:11:51.826Z,9.53
2019-03-22T20:14:26.145Z,9.55
2019-03-22T20:16:59.587Z,9.61
2019-03-22T20:19:33.971Z,9.58
2019-03-22T20:22:15.366Z,9.61
2019-03-22T20:24:43.029Z,9.60
2019-03-22T20:27:16.520Z,9.62
2019-03-22T20:29:52.088Z,9.58
2019-03-22T20:32:33.024Z,9.66
2019-03-22T20:35:16.038Z,9.64
2019-03-22T20:37:45.290Z,9.66
2019-03-22T20:40:21.437Z,9.67
2019-03-22T20:42:57.156Z,9.65
2019-03-22T20:45:29.972Z,9.71
2019-03-22T20:48:04.579Z,9.74
2019-03-22T20:50:37.522Z,9.75
2019-03-22T20:53:10.546Z,9.78
2019-03-22T20:55:43.836Z,9.79
2019-03-22T20:58:16.695Z,9.84
2019-03-22T21:00:49.614Z,9.84
2019-03-22T21:03:22.227Z,9.88
2019-03-22T21:05:55.039Z,9.89
2019-03-22T21:08:28.719Z,9.88
2019-03-22T21:11:02.047Z,9.87
2019-03-22T21:13:34.743Z,9.83
2019-03-22T21:16:10.908Z,9.86
2019-03-22T21:18:43.276Z,9.89
2019-03-22T21:21:15.660Z,9.90
2019-03-22T21:23:47.634Z,9.93
2019-03-22T21:26:19.603Z,9.96
2019-03-22T21:28:51.942Z,9.97
2019-03-22T21:31:24.434Z,9.97
2019-03-22T21:33:56.437Z,9.95
2019-03-22T21:36:29.628Z,9.97
2019-03-22T21:39:02.502Z,9.96
2019-03-22T21:41:35.175Z,9.97
2019-03-22T21:44:07.112Z,10.02
2019-03-22T21:46:39.588Z,10.01
2019-03-22T21:49:12.071Z,9.99
2019-03-22T21:51:44.637Z,10.03
2019-03-22T21:54:16.595Z,10.03
2019-03-22T21:56:49.103Z,10.04
2019-03-22T21:59:21.466Z,10.06
2019-03-22T22:01:55.045Z,10.03
2019-03-22T22:04:27.419Z,10.04
2019-03-22T22:07:01.428Z,10.06
2019-03-22T22:09:33.787Z,10.03
2019-03-22T22:12:06.500Z,10.07
2019-03-22T22:14:41.067Z,10.08
2019-03-22T22:17:12.544Z,10.07
2019-03-22T22:19:45.065Z,10.03
2019-03-22T22:22:17.388Z,10.00
2019-03-22T22:24:49.814Z,10.03
2019-03-22T22:27:22.140Z,10.07
2019-03-22T22:29:54.096Z,10.08
2019-03-22T22:32:26.477Z,10.08
2019-03-22T22:34:58.429Z,10.06
2019-03-22T22:37:33.194Z,10.07
2019-03-22T22:40:11.503Z,10.06
2019-03-22T22:42:51.749Z,10.07
2019-03-22T22:45:25.166Z,10.04
2019-03-22T22:47:57.603Z,10.03
2019-03-22T22:50:29.969Z,10.03
2019-03-22T22:53:02.350Z,10.02
2019-03-22T22:55:35.231Z,10.03
2019-03-22T22:58:07.542Z,9.99
2019-03-22T23:00:40.582Z,9.93
2019-03-22T23:03:12.967Z,9.88
2019-03-22T23:05:45.334Z,9.84
2019-03-22T23:08:17.755Z,9.83
2019-03-22T23:10:50.068Z,9.76
2019-03-22T23:13:22.449Z,9.69
2019-03-22T23:15:54.812Z,9.62
2019-03-22T23:18:27.191Z,9.54
2019-03-22T23:20:59.556Z,9.46
2019-03-22T23:23:31.938Z,9.38
2019-03-22T23:26:04.314Z,9.32
2019-03-22T23:28:36.771Z,9.28
2019-03-22T23:31:08.707Z,9.26
2019-03-22T23:33:41.111Z,9.22
2019-03-22T23:36:20.309Z,9.16
2019-03-22T23:38:47.087Z,9.08
2019-03-22T23:41:19.510Z,9.01
2019-03-22T23:43:51.922Z,8.97
2019-03-22T23:46:24.399Z,8.92
2019-03-22T23:48:56.370Z,8.83
2019-03-22T23:51:28.735Z,8.78
2019-03-22T23:54:02.852Z,8.74
2019-03-22T23:56:35.218Z,8.70
2019-03-22T23:59:07.706Z,8.70
